METAR AND TAF INFORMATION
METAR FOR DTTJ
ADDS - METARS form results

(0537 UTC 28 October 2020)
Data provider http://aviationweather.gov/metar/data/
 
METAR text: DTTJ 280530Z 33012KT 19/08 Q1019
Conditions at: DTTJ (DJERBA MELLITA , TN) observed 0530 UTC 28 October 2020
Temperature: 19.0°C (66°F)
Dewpoint: 8.0°C (46°F) [RH = 49%]
Pressure (altimeter): 30.09 inches Hg (1019.0 mb)
Winds: from the NNW (330 degrees) at 14 MPH (12 knots; 6.2 m/s)
Visibility: missing
Ceiling: unknown
Clouds: missing
Weather: no significant weather observed at this time

METAR text: DTTJ 280500Z 32010KT 9999 FEW030 19/08 Q1018 NOSIG
Conditions at: DTTJ (DJERBA MELLITA , TN) observed 0500 UTC 28 October 2020
Temperature: 19.0°C (66°F)
Dewpoint: 8.0°C (46°F) [RH = 49%]
Pressure (altimeter): 30.06 inches Hg (1018.0 mb)
Winds: from the NW (320 degrees) at 12 MPH (10 knots; 5.1 m/s)
Visibility: 6 or more miles (10+ km)
Ceiling: at least 12,000 feet AGL
Clouds: few clouds at 3000 feet AGL
Weather: no significant weather observed at this time

Forecast for: DTTJ (DJERBA MELLITA , TN)
Text: TAF DTTJ 280500Z 2806/2906 32010KT 9999 FEW033
Forecast period: 0600 to 1600 UTC 28 October 2020
Forecast type: FROM: standard forecast or significant change
Winds: from the NW (320 degrees) at 12 MPH (10 knots; 5.1 m/s)
Visibility: 6 or more miles (10+ km)
Ceiling: at least 12,000 feet AGL
Clouds: few clouds at 3300 feet AGL
Weather: no significant weather forecast for this period
Text: BECMG 2816/2818 VRB02KT
Forecast period: 1600 to 2200 UTC 28 October 2020
Forecast type: BECOMING: Conditions expected to become as follows by 1800 UTC 28 October 2020
Winds: variable direction winds at 2 MPH (2 knots; 1.0 m/s)
Visibility: 6 or more miles (10+ km)
Ceiling: at least 12,000 feet AGL
Clouds: few clouds at 3300 feet AGL
Weather: no significant weather forecast for this period
Text: BECMG 2822/2824 02013KT
Forecast period: 2200 UTC 28 October 2020 to 0600 UTC 29 October 2020
Forecast type: BECOMING: Conditions expected to become as follows by 0000 UTC 29 October 2020
Winds: from the NNE (20 degrees) at 15 MPH (13 knots; 6.7 m/s)
Visibility: 6 or more miles (10+ km)
Ceiling: at least 12,000 feet AGL
Clouds: few clouds at 3300 feet AGL
Weather: no significant weather forecast for this period

 AIRPORT MAP

 RUNWAY INFORMATION

 AIRPORT FREQUENCIES
Type APP Name DJERBA APP Frequency 120.3 MHZ
Type TWR Name DJERBA TWR Frequency 118.15 MHZ

 AIRPORT NEAR NAVIGATION AIDS
Type VOR-DME Name Djerba Frequency 112200 KHZ



2018 Air Astana Virtual Airline